sensor_id;sensor_type;location;lat;lon;timestamp;temperature;humidity
27978;DHT22;15314;49.248;6.968;2022-09-09T00:01:08;16.50;99.90
27978;DHT22;15314;49.248;6.968;2022-09-09T00:02:23;16.50;99.90
27978;DHT22;15314;49.248;6.968;2022-09-09T00:03:31;16.60;99.90
27978;DHT22;15314;49.248;6.968;2022-09-09T00:04:37;16.60;99.90
27978;DHT22;15314;49.248;6.968;2022-09-09T00:07:01;16.50;99.90
27978;DHT22;15314;49.248;6.968;2022-09-09T00:08:03;16.50;99.90
27978;DHT22;15314;49.248;6.968;2022-09-09T00:09:12;16.50;99.90
27978;DHT22;15314;49.248;6.968;2022-09-09T00:10:24;16.50;99.90
27978;DHT22;15314;49.248;6.968;2022-09-09T00:15:43;16.70;99.90
27978;DHT22;15314;49.248;6.968;2022-09-09T00:16:51;16.80;99.90
27978;DHT22;15314;49.248;6.968;2022-09-09T00:18:17;16.60;99.90
27978;DHT22;15314;49.248;6.968;2022-09-09T00:20:05;16.60;99.90
27978;DHT22;15314;49.248;6.968;2022-09-09T00:21:05;16.60;99.90
27978;DHT22;15314;49.248;6.968;2022-09-09T00:22:14;16.60;99.90
27978;DHT22;15314;49.248;6.968;2022-09-09T00:23:34;16.50;99.90
27978;DHT22;15314;49.248;6.968;2022-09-09T00:24:38;16.50;99.90
27978;DHT22;15314;49.248;6.968;2022-09-09T00:27:06;16.50;99.90
27978;DHT22;15314;49.248;6.968;2022-09-09T00:28:19;16.40;99.90
27978;DHT22;15314;49.248;6.968;2022-09-09T00:29:43;16.30;99.90
27978;DHT22;15314;49.248;6.968;2022-09-09T00:30:46;16.30;99.90
27978;DHT22;15314;49.248;6.968;2022-09-09T00:31:48;16.20;99.90
27978;DHT22;15314;49.248;6.968;2022-09-09T00:32:53;16.20;99.90
27978;DHT22;15314;49.248;6.968;2022-09-09T00:33:59;16.20;99.90
27978;DHT22;15314;49.248;6.968;2022-09-09T00:35:27;16.20;99.90
27978;DHT22;15314;49.248;6.968;2022-09-09T00:36:31;16.30;99.90
27978;DHT22;15314;49.248;6.968;2022-09-09T00:37:33;16.40;99.90
27978;DHT22;15314;49.248;6.968;2022-09-09T00:38:38;16.40;99.90
27978;DHT22;15314;49.248;6.968;2022-09-09T00:39:44;16.40;99.90
27978;DHT22;15314;49.248;6.968;2022-09-09T00:41:11;16.50;99.90
27978;DHT22;15314;49.248;6.968;2022-09-09T00:42:41;16.40;99.90
27978;DHT22;15314;49.248;6.968;2022-09-09T00:43:42;16.40;99.90
27978;DHT22;15314;49.248;6.968;2022-09-09T00:45:57;16.40;99.90
27978;DHT22;15314;49.248;6.968;2022-09-09T00:48:11;16.40;99.90
27978;DHT22;15314;49.248;6.968;2022-09-09T00:49:18;16.40;99.90
27978;DHT22;15314;49.248;6.968;2022-09-09T00:51:50;16.30;99.90
27978;DHT22;15314;49.248;6.968;2022-09-09T00:55:51;16.20;99.90
27978;DHT22;15314;49.248;6.968;2022-09-09T00:58:09;16.20;99.90
27978;DHT22;15314;49.248;6.968;2022-09-09T01:00:26;16.10;99.90
27978;DHT22;15314;49.248;6.968;2022-09-09T01:01:28;16.10;99.90
27978;DHT22;15314;49.248;6.968;2022-09-09T01:03:55;16.10;99.90
27978;DHT22;15314;49.248;6.968;2022-09-09T01:05:10;16.10;99.90
27978;DHT22;15314;49.248;6.968;2022-09-09T01:07:18;16.10;99.90
27978;DHT22;15314;49.248;6.968;2022-09-09T01:08:33;16.00;99.90
27978;DHT22;15314;49.248;6.968;2022-09-09T01:09:59;16.00;99.90
27978;DHT22;15314;49.248;6.968;2022-09-09T01:11:01;15.90;99.90
27978;DHT22;15314;49.248;6.968;2022-09-09T01:12:15;15.80;99.90
27978;DHT22;15314;49.248;6.968;2022-09-09T01:13:26;15.80;99.90
27978;DHT22;15314;49.248;6.968;2022-09-09T01:15:39;15.70;99.90
27978;DHT22;15314;49.248;6.968;2022-09-09T01:16:40;15.70;99.90
27978;DHT22;15314;49.248;6.968;2022-09-09T01:18:49;15.70;99.90
27978;DHT22;15314;49.248;6.968;2022-09-09T01:25:07;15.80;99.90
27978;DHT22;15314;49.248;6.968;2022-09-09T01:27:02;15.90;99.90
27978;DHT22;15314;49.248;6.968;2022-09-09T01:28:09;16.00;99.90
27978;DHT22;15314;49.248;6.968;2022-09-09T01:29:15;16.00;99.90
27978;DHT22;15314;49.248;6.968;2022-09-09T01:30:18;16.00;99.90
27978;DHT22;15314;49.248;6.968;2022-09-09T01:31:23;16.00;99.90
27978;DHT22;15314;49.248;6.968;2022-09-09T01:33:41;16.00;99.90
27978;DHT22;15314;49.248;6.968;2022-09-09T01:34:42;16.10;99.90
27978;DHT22;15314;49.248;6.968;2022-09-09T01:36:57;16.20;99.90
27978;DHT22;15314;49.248;6.968;2022-09-09T01:37:58;16.20;99.90
27978;DHT22;15314;49.248;6.968;2022-09-09T01:38:59;16.20;99.90
27978;DHT22;15314;49.248;6.968;2022-09-09T01:39:59;16.20;99.90
27978;DHT22;15314;49.248;6.968;2022-09-09T01:41:00;16.20;99.90
27978;DHT22;15314;49.248;6.968;2022-09-09T01:42:03;16.20;99.90
27978;DHT22;15314;49.248;6.968;2022-09-09T01:43:04;16.20;99.90
27978;DHT22;15314;49.248;6.968;2022-09-09T01:44:07;16.30;99.90
27978;DHT22;15314;49.248;6.968;2022-09-09T01:45:08;16.30;99.90
27978;DHT22;15314;49.248;6.968;2022-09-09T01:46:09;16.20;99.90
27978;DHT22;15314;49.248;6.968;2022-09-09T01:47:11;16.30;99.90
27978;DHT22;15314;49.248;6.968;2022-09-09T01:48:12;16.30;99.90
27978;DHT22;15314;49.248;6.968;2022-09-09T01:49:12;16.30;99.90
27978;DHT22;15314;49.248;6.968;2022-09-09T01:50:15;16.40;99.90
27978;DHT22;15314;49.248;6.968;2022-09-09T01:51:16;16.40;99.90
27978;DHT22;15314;49.248;6.968;2022-09-09T01:52:16;16.40;99.90
27978;DHT22;15314;49.248;6.968;2022-09-09T01:53:18;16.30;99.90
27978;DHT22;15314;49.248;6.968;2022-09-09T01:54:20;16.30;99.90
27978;DHT22;15314;49.248;6.968;2022-09-09T01:55:29;16.30;99.90
27978;DHT22;15314;49.248;6.968;2022-09-09T01:58:24;16.30;99.90
27978;DHT22;15314;49.248;6.968;2022-09-09T02:03:29;16.20;99.90
27978;DHT22;15314;49.248;6.968;2022-09-09T02:04:42;16.20;99.90
27978;DHT22;15314;49.248;6.968;2022-09-09T02:06:14;16.20;99.90
27978;DHT22;15314;49.248;6.968;2022-09-09T02:07:39;16.20;99.90
27978;DHT22;15314;49.248;6.968;2022-09-09T02:08:45;16.10;99.90
27978;DHT22;15314;49.248;6.968;2022-09-09T02:09:51;16.10;99.90
27978;DHT22;15314;49.248;6.968;2022-09-09T02:11:01;16.20;99.90
27978;DHT22;15314;49.248;6.968;2022-09-09T02:12:09;16.10;99.90
27978;DHT22;15314;49.248;6.968;2022-09-09T02:13:18;16.00;99.90
27978;DHT22;15314;49.248;6.968;2022-09-09T02:14:25;16.00;99.90
27978;DHT22;15314;49.248;6.968;2022-09-09T02:16:00;15.90;99.90
27978;DHT22;15314;49.248;6.968;2022-09-09T02:17:10;15.90;99.90
27978;DHT22;15314;49.248;6.968;2022-09-09T02:18:14;15.90;99.90
27978;DHT22;15314;49.248;6.968;2022-09-09T02:19:25;15.80;99.90
27978;DHT22;15314;49.248;6.968;2022-09-09T02:20:28;15.80;99.90
27978;DHT22;15314;49.248;6.968;2022-09-09T02:21:33;15.80;99.90
27978;DHT22;15314;49.248;6.968;2022-09-09T02:22:39;15.70;99.90
27978;DHT22;15314;49.248;6.968;2022-09-09T02:23:42;15.70;99.90
27978;DHT22;15314;49.248;6.968;2022-09-09T02:24:44;15.70;99.90
27978;DHT22;15314;49.248;6.968;2022-09-09T02:25:46;15.70;99.90
27978;DHT22;15314;49.248;6.968;2022-09-09T02:26:51;15.70;99.90
27978;DHT22;15314;49.248;6.968;2022-09-09T02:27:53;15.70;99.90
27978;DHT22;15314;49.248;6.968;2022-09-09T02:28:55;15.70;99.90
27978;DHT22;15314;49.248;6.968;2022-09-09T02:29:59;15.60;99.90
27978;DHT22;15314;49.248;6.968;2022-09-09T02:31:02;15.60;99.90
27978;DHT22;15314;49.248;6.968;2022-09-09T02:32:07;15.60;99.90
27978;DHT22;15314;49.248;6.968;2022-09-09T02:33:11;15.60;99.90
27978;DHT22;15314;49.248;6.968;2022-09-09T02:34:14;15.60;99.90
27978;DHT22;15314;49.248;6.968;2022-09-09T02:35:19;15.60;99.90
27978;DHT22;15314;49.248;6.968;2022-09-09T02:36:23;15.60;99.90
27978;DHT22;15314;49.248;6.968;2022-09-09T02:37:32;15.70;99.90
27978;DHT22;15314;49.248;6.968;2022-09-09T02:38:39;15.70;99.90
27978;DHT22;15314;49.248;6.968;2022-09-09T02:39:41;15.80;99.90
27978;DHT22;15314;49.248;6.968;2022-09-09T02:40:42;15.60;99.90
27978;DHT22;15314;49.248;6.968;2022-09-09T02:41:42;15.80;99.90
27978;DHT22;15314;49.248;6.968;2022-09-09T02:42:48;15.80;99.90
27978;DHT22;15314;49.248;6.968;2022-09-09T02:43:48;15.80;99.90
27978;DHT22;15314;49.248;6.968;2022-09-09T02:44:49;15.80;99.90
27978;DHT22;15314;49.248;6.968;2022-09-09T02:49:16;15.90;99.90
27978;DHT22;15314;49.248;6.968;2022-09-09T02:53:15;16.00;99.90
27978;DHT22;15314;49.248;6.968;2022-09-09T02:54:29;16.00;99.90
27978;DHT22;15314;49.248;6.968;2022-09-09T02:55:52;16.00;99.90
27978;DHT22;15314;49.248;6.968;2022-09-09T02:56:57;16.00;99.90
27978;DHT22;15314;49.248;6.968;2022-09-09T02:58:02;16.00;99.90
27978;DHT22;15314;49.248;6.968;2022-09-09T02:59:05;16.10;99.90
27978;DHT22;15314;49.248;6.968;2022-09-09T03:00:06;16.00;99.90
27978;DHT22;15314;49.248;6.968;2022-09-09T03:01:07;16.00;99.90
27978;DHT22;15314;49.248;6.968;2022-09-09T03:02:09;16.00;99.90
27978;DHT22;15314;49.248;6.968;2022-09-09T03:03:11;16.00;99.90
27978;DHT22;15314;49.248;6.968;2022-09-09T03:04:12;16.00;99.90
27978;DHT22;15314;49.248;6.968;2022-09-09T03:05:12;16.00;99.90
27978;DHT22;15314;49.248;6.968;2022-09-09T03:06:13;16.20;99.90
27978;DHT22;15314;49.248;6.968;2022-09-09T03:07:14;16.10;99.90
27978;DHT22;15314;49.248;6.968;2022-09-09T03:08:16;16.10;99.90
27978;DHT22;15314;49.248;6.968;2022-09-09T03:09:17;16.00;99.90
27978;DHT22;15314;49.248;6.968;2022-09-09T03:10:18;16.00;99.90
27978;DHT22;15314;49.248;6.968;2022-09-09T03:11:18;16.10;99.90
27978;DHT22;15314;49.248;6.968;2022-09-09T03:12:19;16.00;99.90
27978;DHT22;15314;49.248;6.968;2022-09-09T03:13:20;16.00;99.90
27978;DHT22;15314;49.248;6.968;2022-09-09T03:14:22;15.90;99.90
27978;DHT22;15314;49.248;6.968;2022-09-09T03:15:25;15.90;99.90
27978;DHT22;15314;49.248;6.968;2022-09-09T03:16:29;15.90;99.90
27978;DHT22;15314;49.248;6.968;2022-09-09T03:17:30;15.80;99.90
27978;DHT22;15314;49.248;6.968;2022-09-09T03:18:31;15.80;99.90
27978;DHT22;15314;49.248;6.968;2022-09-09T03:19:32;15.80;99.90
27978;DHT22;15314;49.248;6.968;2022-09-09T03:20:33;15.70;99.90
27978;DHT22;15314;49.248;6.968;2022-09-09T03:21:33;15.70;99.90
27978;DHT22;15314;49.248;6.968;2022-09-09T03:22:35;15.70;99.90
27978;DHT22;15314;49.248;6.968;2022-09-09T03:23:35;15.70;99.90
27978;DHT22;15314;49.248;6.968;2022-09-09T03:24:36;15.60;99.90
27978;DHT22;15314;49.248;6.968;2022-09-09T03:25:36;15.70;99.90
27978;DHT22;15314;49.248;6.968;2022-09-09T03:26:37;15.60;99.90
27978;DHT22;15314;49.248;6.968;2022-09-09T03:27:38;15.70;99.90
27978;DHT22;15314;49.248;6.968;2022-09-09T03:28:38;15.70;99.90
27978;DHT22;15314;49.248;6.968;2022-09-09T03:29:39;15.80;99.90
27978;DHT22;15314;49.248;6.968;2022-09-09T03:30:40;15.70;99.90
27978;DHT22;15314;49.248;6.968;2022-09-09T03:31:40;15.70;99.90
27978;DHT22;15314;49.248;6.968;2022-09-09T03:32:41;15.70;99.90
27978;DHT22;15314;49.248;6.968;2022-09-09T03:33:42;15.70;99.90
27978;DHT22;15314;49.248;6.968;2022-09-09T03:34:43;15.70;99.90
27978;DHT22;15314;49.248;6.968;2022-09-09T03:35:47;15.80;99.90
27978;DHT22;15314;49.248;6.968;2022-09-09T03:36:51;15.80;99.90
27978;DHT22;15314;49.248;6.968;2022-09-09T03:37:52;15.80;99.90
27978;DHT22;15314;49.248;6.968;2022-09-09T03:38:52;15.80;99.90
27978;DHT22;15314;49.248;6.968;2022-09-09T03:39:55;15.80;99.90
27978;DHT22;15314;49.248;6.968;2022-09-09T03:40:56;15.80;99.90
27978;DHT22;15314;49.248;6.968;2022-09-09T03:41:57;15.80;99.90
27978;DHT22;15314;49.248;6.968;2022-09-09T03:42:58;15.80;99.90
27978;DHT22;15314;49.248;6.968;2022-09-09T03:43:59;15.80;99.90
27978;DHT22;15314;49.248;6.968;2022-09-09T03:45:00;15.80;99.90
27978;DHT22;15314;49.248;6.968;2022-09-09T03:46:01;15.70;99.90
27978;DHT22;15314;49.248;6.968;2022-09-09T03:47:01;15.70;99.90
27978;DHT22;15314;49.248;6.968;2022-09-09T03:48:02;15.80;99.90
27978;DHT22;15314;49.248;6.968;2022-09-09T03:49:03;15.80;99.90
27978;DHT22;15314;49.248;6.968;2022-09-09T03:50:04;15.70;99.90
27978;DHT22;15314;49.248;6.968;2022-09-09T03:51:08;15.70;99.90
27978;DHT22;15314;49.248;6.968;2022-09-09T03:52:09;15.70;99.90
27978;DHT22;15314;49.248;6.968;2022-09-09T03:53:10;15.80;99.90
27978;DHT22;15314;49.248;6.968;2022-09-09T03:54:11;15.70;99.90
27978;DHT22;15314;49.248;6.968;2022-09-09T03:55:11;15.70;99.90
27978;DHT22;15314;49.248;6.968;2022-09-09T03:56:12;15.70;99.90
27978;DHT22;15314;49.248;6.968;2022-09-09T03:57:12;15.80;99.90
27978;DHT22;15314;49.248;6.968;2022-09-09T03:58:16;15.80;99.90
27978;DHT22;15314;49.248;6.968;2022-09-09T03:59:19;15.80;99.90
27978;DHT22;15314;49.248;6.968;2022-09-09T04:00:20;15.80;99.90
27978;DHT22;15314;49.248;6.968;2022-09-09T04:01:21;15.80;99.90
27978;DHT22;15314;49.248;6.968;2022-09-09T04:02:22;15.70;99.90
27978;DHT22;15314;49.248;6.968;2022-09-09T04:03:23;15.70;99.90
27978;DHT22;15314;49.248;6.968;2022-09-09T04:04:25;15.60;99.90
27978;DHT22;15314;49.248;6.968;2022-09-09T04:05:26;15.60;99.90
27978;DHT22;15314;49.248;6.968;2022-09-09T04:06:27;15.50;99.90
27978;DHT22;15314;49.248;6.968;2022-09-09T04:07:28;15.40;99.90
27978;DHT22;15314;49.248;6.968;2022-09-09T04:08:29;15.30;99.90
27978;DHT22;15314;49.248;6.968;2022-09-09T04:09:33;15.30;99.90
27978;DHT22;15314;49.248;6.968;2022-09-09T04:10:35;15.30;99.90
27978;DHT22;15314;49.248;6.968;2022-09-09T04:11:38;15.30;99.90
27978;DHT22;15314;49.248;6.968;2022-09-09T04:12:39;15.30;99.90
27978;DHT22;15314;49.248;6.968;2022-09-09T04:13:40;15.30;99.90
27978;DHT22;15314;49.248;6.968;2022-09-09T04:14:40;15.20;99.90
27978;DHT22;15314;49.248;6.968;2022-09-09T04:15:41;15.20;99.90
27978;DHT22;15314;49.248;6.968;2022-09-09T04:16:42;15.30;99.90
27978;DHT22;15314;49.248;6.968;2022-09-09T04:17:44;15.20;99.90
27978;DHT22;15314;49.248;6.968;2022-09-09T04:18:46;15.20;99.90
27978;DHT22;15314;49.248;6.968;2022-09-09T04:19:46;15.20;99.90
27978;DHT22;15314;49.248;6.968;2022-09-09T04:20:48;15.20;99.90
27978;DHT22;15314;49.248;6.968;2022-09-09T04:21:49;15.20;99.90
27978;DHT22;15314;49.248;6.968;2022-09-09T04:22:51;15.30;99.90
27978;DHT22;15314;49.248;6.968;2022-09-09T04:23:52;15.20;99.90
27978;DHT22;15314;49.248;6.968;2022-09-09T04:24:53;15.20;99.90
27978;DHT22;15314;49.248;6.968;2022-09-09T04:25:54;15.20;99.90
27978;DHT22;15314;49.248;6.968;2022-09-09T04:26:55;15.30;99.90
27978;DHT22;15314;49.248;6.968;2022-09-09T04:27:57;15.20;99.90
27978;DHT22;15314;49.248;6.968;2022-09-09T04:28:58;15.20;99.90
27978;DHT22;15314;49.248;6.968;2022-09-09T04:29:59;15.30;99.90
27978;DHT22;15314;49.248;6.968;2022-09-09T04:31:12;15.40;99.90
27978;DHT22;15314;49.248;6.968;2022-09-09T04:32:15;15.30;99.90
27978;DHT22;15314;49.248;6.968;2022-09-09T04:33:16;15.30;99.90
27978;DHT22;15314;49.248;6.968;2022-09-09T04:34:17;15.40;99.90
27978;DHT22;15314;49.248;6.968;2022-09-09T04:35:18;15.40;99.90
27978;DHT22;15314;49.248;6.968;2022-09-09T04:36:20;15.40;99.90
27978;DHT22;15314;49.248;6.968;2022-09-09T04:37:22;15.40;99.90
27978;DHT22;15314;49.248;6.968;2022-09-09T04:38:22;15.50;99.90
27978;DHT22;15314;49.248;6.968;2022-09-09T04:39:23;15.50;99.90
27978;DHT22;15314;49.248;6.968;2022-09-09T04:40:24;15.40;99.90
27978;DHT22;15314;49.248;6.968;2022-09-09T04:41:25;15.40;99.90
27978;DHT22;15314;49.248;6.968;2022-09-09T04:42:26;15.40;99.90
27978;DHT22;15314;49.248;6.968;2022-09-09T04:43:28;15.50;99.90
27978;DHT22;15314;49.248;6.968;2022-09-09T04:44:28;15.50;99.90
27978;DHT22;15314;49.248;6.968;2022-09-09T04:45:30;15.50;99.90
27978;DHT22;15314;49.248;6.968;2022-09-09T04:46:31;15.50;99.90
27978;DHT22;15314;49.248;6.968;2022-09-09T04:47:32;15.50;99.90
27978;DHT22;15314;49.248;6.968;2022-09-09T04:48:33;15.50;99.90
27978;DHT22;15314;49.248;6.968;2022-09-09T04:49:34;15.50;99.90
27978;DHT22;15314;49.248;6.968;2022-09-09T04:50:34;15.50;99.90
27978;DHT22;15314;49.248;6.968;2022-09-09T04:51:35;15.50;99.90
27978;DHT22;15314;49.248;6.968;2022-09-09T04:52:36;15.50;99.90
27978;DHT22;15314;49.248;6.968;2022-09-09T04:53:37;15.50;99.90
27978;DHT22;15314;49.248;6.968;2022-09-09T04:54:38;15.50;99.90
27978;DHT22;15314;49.248;6.968;2022-09-09T04:55:39;15.50;99.90
27978;DHT22;15314;49.248;6.968;2022-09-09T04:56:39;15.50;99.90
27978;DHT22;15314;49.248;6.968;2022-09-09T04:57:42;15.60;99.90
27978;DHT22;15314;49.248;6.968;2022-09-09T04:58:43;15.70;99.90
27978;DHT22;15314;49.248;6.968;2022-09-09T04:59:45;15.60;99.90
27978;DHT22;15314;49.248;6.968;2022-09-09T05:00:46;15.60;99.90
27978;DHT22;15314;49.248;6.968;2022-09-09T05:01:47;15.60;99.90
27978;DHT22;15314;49.248;6.968;2022-09-09T05:02:48;15.60;99.90
27978;DHT22;15314;49.248;6.968;2022-09-09T05:03:48;15.60;99.90
27978;DHT22;15314;49.248;6.968;2022-09-09T05:04:49;15.60;99.90
27978;DHT22;15314;49.248;6.968;2022-09-09T05:05:50;15.70;99.90
27978;DHT22;15314;49.248;6.968;2022-09-09T05:06:50;15.70;99.90
27978;DHT22;15314;49.248;6.968;2022-09-09T05:07:51;15.70;99.90
27978;DHT22;15314;49.248;6.968;2022-09-09T05:08:52;15.70;99.90
27978;DHT22;15314;49.248;6.968;2022-09-09T05:09:53;15.70;99.90
27978;DHT22;15314;49.248;6.968;2022-09-09T05:10:54;15.80;99.90
27978;DHT22;15314;49.248;6.968;2022-09-09T05:11:55;15.70;99.90
27978;DHT22;15314;49.248;6.968;2022-09-09T05:12:56;15.80;99.90
27978;DHT22;15314;49.248;6.968;2022-09-09T05:13:56;15.80;99.90
27978;DHT22;15314;49.248;6.968;2022-09-09T05:14:57;15.80;99.90
27978;DHT22;15314;49.248;6.968;2022-09-09T05:15:58;15.80;99.90
27978;DHT22;15314;49.248;6.968;2022-09-09T05:16:59;15.90;99.90
27978;DHT22;15314;49.248;6.968;2022-09-09T05:18:00;15.90;99.90
27978;DHT22;15314;49.248;6.968;2022-09-09T05:19:01;15.90;99.90
27978;DHT22;15314;49.248;6.968;2022-09-09T05:20:03;15.90;99.90
27978;DHT22;15314;49.248;6.968;2022-09-09T05:21:04;15.90;99.90
27978;DHT22;15314;49.248;6.968;2022-09-09T05:22:06;15.90;99.90
27978;DHT22;15314;49.248;6.968;2022-09-09T05:23:08;15.80;99.90
27978;DHT22;15314;49.248;6.968;2022-09-09T05:24:10;15.90;99.90
27978;DHT22;15314;49.248;6.968;2022-09-09T05:25:11;15.90;99.90
27978;DHT22;15314;49.248;6.968;2022-09-09T05:26:17;15.90;99.90
27978;DHT22;15314;49.248;6.968;2022-09-09T05:27:18;15.80;99.90
27978;DHT22;15314;49.248;6.968;2022-09-09T05:28:19;15.90;99.90
27978;DHT22;15314;49.248;6.968;2022-09-09T05:29:20;15.90;99.90
27978;DHT22;15314;49.248;6.968;2022-09-09T05:30:21;15.90;99.90
27978;DHT22;15314;49.248;6.968;2022-09-09T05:31:23;15.90;99.90
27978;DHT22;15314;49.248;6.968;2022-09-09T05:32:26;15.90;99.90
27978;DHT22;15314;49.248;6.968;2022-09-09T05:33:27;15.90;99.90
27978;DHT22;15314;49.248;6.968;2022-09-09T05:34:28;15.90;99.90
27978;DHT22;15314;49.248;6.968;2022-09-09T05:35:29;15.90;99.90
27978;DHT22;15314;49.248;6.968;2022-09-09T05:36:30;15.90;99.90
27978;DHT22;15314;49.248;6.968;2022-09-09T05:37:31;15.90;99.90
27978;DHT22;15314;49.248;6.968;2022-09-09T05:38:32;15.90;99.90
27978;DHT22;15314;49.248;6.968;2022-09-09T05:39:33;16.00;99.90
27978;DHT22;15314;49.248;6.968;2022-09-09T05:40:36;15.90;99.90
27978;DHT22;15314;49.248;6.968;2022-09-09T05:41:37;16.00;99.90
27978;DHT22;15314;49.248;6.968;2022-09-09T05:42:37;16.00;99.90
27978;DHT22;15314;49.248;6.968;2022-09-09T05:43:39;16.00;99.90
27978;DHT22;15314;49.248;6.968;2022-09-09T05:44:39;16.00;99.90
27978;DHT22;15314;49.248;6.968;2022-09-09T05:45:42;15.90;99.90
27978;DHT22;15314;49.248;6.968;2022-09-09T05:46:43;15.90;99.90
27978;DHT22;15314;49.248;6.968;2022-09-09T05:47:45;15.90;99.90
27978;DHT22;15314;49.248;6.968;2022-09-09T05:48:53;15.90;99.90
27978;DHT22;15314;49.248;6.968;2022-09-09T05:49:55;15.90;99.90
27978;DHT22;15314;49.248;6.968;2022-09-09T05:50:56;15.90;99.90
27978;DHT22;15314;49.248;6.968;2022-09-09T05:51:59;16.00;99.90
27978;DHT22;15314;49.248;6.968;2022-09-09T05:53:00;16.00;99.90
27978;DHT22;15314;49.248;6.968;2022-09-09T05:54:01;16.00;99.90
27978;DHT22;15314;49.248;6.968;2022-09-09T05:55:02;16.00;99.90
27978;DHT22;15314;49.248;6.968;2022-09-09T05:56:06;16.00;99.90
27978;DHT22;15314;49.248;6.968;2022-09-09T05:57:08;16.00;99.90
27978;DHT22;15314;49.248;6.968;2022-09-09T05:58:08;16.00;99.90
27978;DHT22;15314;49.248;6.968;2022-09-09T05:59:10;16.00;99.90
27978;DHT22;15314;49.248;6.968;2022-09-09T06:00:12;16.00;99.90
27978;DHT22;15314;49.248;6.968;2022-09-09T06:01:18;16.10;99.90
27978;DHT22;15314;49.248;6.968;2022-09-09T06:02:19;16.10;99.90
27978;DHT22;15314;49.248;6.968;2022-09-09T06:03:19;16.10;99.90
27978;DHT22;15314;49.248;6.968;2022-09-09T06:04:24;16.10;99.90
27978;DHT22;15314;49.248;6.968;2022-09-09T06:05:28;16.20;99.90
27978;DHT22;15314;49.248;6.968;2022-09-09T06:06:33;16.20;99.90
27978;DHT22;15314;49.248;6.968;2022-09-09T06:07:41;16.20;99.90
27978;DHT22;15314;49.248;6.968;2022-09-09T06:08:44;16.10;99.90
27978;DHT22;15314;49.248;6.968;2022-09-09T06:09:45;16.10;99.90
27978;DHT22;15314;49.248;6.968;2022-09-09T06:10:46;16.20;99.90
27978;DHT22;15314;49.248;6.968;2022-09-09T06:11:46;16.10;99.90
27978;DHT22;15314;49.248;6.968;2022-09-09T06:12:47;16.20;99.90
27978;DHT22;15314;49.248;6.968;2022-09-09T06:13:48;16.20;99.90
27978;DHT22;15314;49.248;6.968;2022-09-09T06:14:51;16.20;99.90
27978;DHT22;15314;49.248;6.968;2022-09-09T06:15:52;16.20;99.90
27978;DHT22;15314;49.248;6.968;2022-09-09T06:16:53;16.20;99.90
27978;DHT22;15314;49.248;6.968;2022-09-09T06:17:54;16.10;99.90
27978;DHT22;15314;49.248;6.968;2022-09-09T06:18:56;16.10;99.90
27978;DHT22;15314;49.248;6.968;2022-09-09T06:19:58;16.10;99.90
27978;DHT22;15314;49.248;6.968;2022-09-09T06:21:04;16.10;99.90
27978;DHT22;15314;49.248;6.968;2022-09-09T06:22:05;16.20;99.90
27978;DHT22;15314;49.248;6.968;2022-09-09T06:23:06;16.20;99.90
27978;DHT22;15314;49.248;6.968;2022-09-09T06:24:06;16.30;99.90
27978;DHT22;15314;49.248;6.968;2022-09-09T06:25:10;16.20;99.90
27978;DHT22;15314;49.248;6.968;2022-09-09T06:26:20;16.10;99.90
27978;DHT22;15314;49.248;6.968;2022-09-09T06:27:21;16.10;99.90
27978;DHT22;15314;49.248;6.968;2022-09-09T06:28:21;16.10;99.90
27978;DHT22;15314;49.248;6.968;2022-09-09T06:29:22;16.10;99.90
27978;DHT22;15314;49.248;6.968;2022-09-09T06:30:22;16.10;99.90
27978;DHT22;15314;49.248;6.968;2022-09-09T06:31:25;16.10;99.90
27978;DHT22;15314;49.248;6.968;2022-09-09T06:32:26;16.10;99.90
27978;DHT22;15314;49.248;6.968;2022-09-09T06:33:30;16.20;99.90
27978;DHT22;15314;49.248;6.968;2022-09-09T06:34:31;16.30;99.90
27978;DHT22;15314;49.248;6.968;2022-09-09T06:35:31;16.30;99.90
27978;DHT22;15314;49.248;6.968;2022-09-09T06:36:34;16.30;99.90
27978;DHT22;15314;49.248;6.968;2022-09-09T06:37:35;16.20;99.90
27978;DHT22;15314;49.248;6.968;2022-09-09T06:38:37;16.20;99.90
27978;DHT22;15314;49.248;6.968;2022-09-09T06:39:38;16.30;99.90
27978;DHT22;15314;49.248;6.968;2022-09-09T06:40:38;16.30;99.90
27978;DHT22;15314;49.248;6.968;2022-09-09T06:41:40;16.30;99.90
27978;DHT22;15314;49.248;6.968;2022-09-09T06:42:41;16.30;99.90
27978;DHT22;15314;49.248;6.968;2022-09-09T06:43:42;16.40;99.90
27978;DHT22;15314;49.248;6.968;2022-09-09T06:44:42;16.40;99.90
27978;DHT22;15314;49.248;6.968;2022-09-09T06:45:43;16.40;99.90
27978;DHT22;15314;49.248;6.968;2022-09-09T06:46:43;16.40;99.90
27978;DHT22;15314;49.248;6.968;2022-09-09T06:47:48;16.40;99.90
27978;DHT22;15314;49.248;6.968;2022-09-09T06:48:48;16.50;99.90
27978;DHT22;15314;49.248;6.968;2022-09-09T06:49:49;16.50;99.90
27978;DHT22;15314;49.248;6.968;2022-09-09T06:50:50;16.40;99.90
27978;DHT22;15314;49.248;6.968;2022-09-09T06:51:50;16.50;99.90
27978;DHT22;15314;49.248;6.968;2022-09-09T06:52:52;16.50;99.90
27978;DHT22;15314;49.248;6.968;2022-09-09T06:53:55;16.60;99.90
27978;DHT22;15314;49.248;6.968;2022-09-09T06:54:56;16.60;99.90
27978;DHT22;15314;49.248;6.968;2022-09-09T06:55:59;16.70;99.90
27978;DHT22;15314;49.248;6.968;2022-09-09T06:57:01;16.70;99.90
27978;DHT22;15314;49.248;6.968;2022-09-09T06:58:08;16.70;99.90
27978;DHT22;15314;49.248;6.968;2022-09-09T06:59:10;16.60;99.90
27978;DHT22;15314;49.248;6.968;2022-09-09T07:00:11;16.60;99.90
27978;DHT22;15314;49.248;6.968;2022-09-09T07:01:16;16.70;99.90
27978;DHT22;15314;49.248;6.968;2022-09-09T07:02:17;16.70;99.90
27978;DHT22;15314;49.248;6.968;2022-09-09T07:03:18;16.70;99.90
27978;DHT22;15314;49.248;6.968;2022-09-09T07:04:19;16.70;99.90
27978;DHT22;15314;49.248;6.968;2022-09-09T07:05:19;16.70;99.90
27978;DHT22;15314;49.248;6.968;2022-09-09T07:06:27;16.70;99.90
27978;DHT22;15314;49.248;6.968;2022-09-09T07:07:27;16.70;99.90
27978;DHT22;15314;49.248;6.968;2022-09-09T07:08:29;16.80;99.90
27978;DHT22;15314;49.248;6.968;2022-09-09T07:09:30;16.70;99.90
27978;DHT22;15314;49.248;6.968;2022-09-09T07:10:32;16.80;99.90
27978;DHT22;15314;49.248;6.968;2022-09-09T07:11:39;16.80;99.90
27978;DHT22;15314;49.248;6.968;2022-09-09T07:12:40;16.90;99.90
27978;DHT22;15314;49.248;6.968;2022-09-09T07:13:40;16.90;99.90
27978;DHT22;15314;49.248;6.968;2022-09-09T07:14:42;17.00;99.90
27978;DHT22;15314;49.248;6.968;2022-09-09T07:15:42;17.00;99.90
27978;DHT22;15314;49.248;6.968;2022-09-09T07:16:44;17.00;99.90
27978;DHT22;15314;49.248;6.968;2022-09-09T07:17:45;17.10;99.90
27978;DHT22;15314;49.248;6.968;2022-09-09T07:18:47;17.30;99.90
27978;DHT22;15314;49.248;6.968;2022-09-09T07:19:47;17.30;99.90
27978;DHT22;15314;49.248;6.968;2022-09-09T07:20:54;17.50;99.90
27978;DHT22;15314;49.248;6.968;2022-09-09T07:21:55;17.60;99.90